createdAt,value
2022-11-05T00:01:10.632Z,34.58
2022-11-05T00:03:38.822Z,33.38
2022-11-05T00:06:09.812Z,33.30
2022-11-05T00:08:38.064Z,35.35
2022-11-05T00:11:06.218Z,34.80
2022-11-05T00:13:34.537Z,35.45
2022-11-05T00:16:02.666Z,34.53
2022-11-05T00:18:30.787Z,32.70
2022-11-05T00:20:59.025Z,30.75
2022-11-05T00:23:27.624Z,32.33
2022-11-05T00:25:58.019Z,31.55
2022-11-05T00:28:28.110Z,31.83
2022-11-05T00:31:11.371Z,31.85
2022-11-05T00:33:40.810Z,33.78
2022-11-05T00:36:11.039Z,31.63
2022-11-05T00:38:39.342Z,31.80
2022-11-05T00:41:07.505Z,31.38
2022-11-05T00:43:35.828Z,31.70
2022-11-05T00:46:03.974Z,31.55
2022-11-05T00:48:32.414Z,33.20
2022-11-05T00:51:00.692Z,35.45
2022-11-05T00:53:29.200Z,31.42
2022-11-05T00:55:57.534Z,31.13
2022-11-05T00:58:25.684Z,32.33
2022-11-05T01:01:01.311Z,31.67
2022-11-05T01:03:33.169Z,28.65
2022-11-05T01:06:09.742Z,31.65
2022-11-05T01:08:39.011Z,29.38
2022-11-05T01:11:25.184Z,29.30
2022-11-05T01:13:53.338Z,30.80
2022-11-05T01:16:21.473Z,30.95
2022-11-05T01:18:49.730Z,29.65
2022-11-05T01:21:18.006Z,28.27
2022-11-05T01:23:46.057Z,30.23
2022-11-05T01:26:14.367Z,28.65
2022-11-05T01:28:42.587Z,28.92
2022-11-05T01:31:10.979Z,28.98
2022-11-05T01:33:39.448Z,30.02
2022-11-05T01:36:07.780Z,28.77
2022-11-05T01:38:36.574Z,28.50
2022-11-05T01:41:05.143Z,27.70
2022-11-05T01:43:58.944Z,26.02
2022-11-05T01:46:36.975Z,22.90
2022-11-05T01:49:21.282Z,23.30
2022-11-05T01:51:50.274Z,23.90
2022-11-05T01:54:24.598Z,24.15
2022-11-05T01:56:57.308Z,22.67
2022-11-05T01:59:35.513Z,23.48
2022-11-05T02:02:05.955Z,23.17
2022-11-05T02:04:45.232Z,23.67
2022-11-05T02:07:14.555Z,21.88
2022-11-05T02:10:05.900Z,23.13
2022-11-05T02:12:35.129Z,22.45
2022-11-05T02:15:03.320Z,21.88
2022-11-05T02:18:05.055Z,22.88
2022-11-05T02:21:12.742Z,21.80
2022-11-05T02:24:05.413Z,21.35
2022-11-05T02:26:51.097Z,22.35
2022-11-05T02:29:55.183Z,21.85
2022-11-05T02:32:41.667Z,20.17
2022-11-05T02:35:37.720Z,20.85
2022-11-05T02:38:18.488Z,20.05
2022-11-05T02:41:00.281Z,20.42
2022-11-05T02:43:51.719Z,19.48
2022-11-05T02:46:27.746Z,20.38
2022-11-05T02:49:18.547Z,20.35
2022-11-05T02:51:57.885Z,18.63
2022-11-05T02:54:36.153Z,19.35
2022-11-05T02:57:05.837Z,20.60
2022-11-05T02:59:34.221Z,20.25
2022-11-05T03:02:03.139Z,20.35
2022-11-05T03:04:31.984Z,19.98
2022-11-05T03:07:09.226Z,20.13
2022-11-05T03:09:49.553Z,19.10
2022-11-05T03:12:28.638Z,20.60
2022-11-05T03:15:32.273Z,20.73
2022-11-05T03:18:22.204Z,21.55
2022-11-05T03:21:01.872Z,21.70
2022-11-05T03:23:45.232Z,21.67
2022-11-05T03:26:21.704Z,22.80
2022-11-05T03:29:25.534Z,22.90
2022-11-05T03:31:57.932Z,23.27
2022-11-05T03:34:31.716Z,23.55
2022-11-05T03:37:01.484Z,22.50
2022-11-05T03:39:36.694Z,22.48
2022-11-05T03:42:07.924Z,21.02
2022-11-05T03:44:39.507Z,22.70
2022-11-05T03:47:13.984Z,23.23
2022-11-05T03:50:09.790Z,22.05
2022-11-05T03:52:45.993Z,22.48
2022-11-05T03:55:14.427Z,23.17
2022-11-05T03:57:46.827Z,23.73
2022-11-05T04:00:15.381Z,22.23
2022-11-05T04:02:43.519Z,23.95
2022-11-05T04:05:12.987Z,22.05
2022-11-05T04:07:40.998Z,24.15
2022-11-05T04:10:10.626Z,24.25
2022-11-05T04:12:38.867Z,22.77
2022-11-05T04:15:07.455Z,22.38
2022-11-05T04:17:35.659Z,21.80
2022-11-05T04:20:03.985Z,23.55
2022-11-05T04:22:34.373Z,22.90
2022-11-05T04:25:02.706Z,22.90
2022-11-05T04:27:30.834Z,23.83
2022-11-05T04:29:58.970Z,23.85
2022-11-05T04:32:27.202Z,23.55
2022-11-05T04:34:55.203Z,23.33
2022-11-05T04:37:23.752Z,22.60
2022-11-05T04:39:51.882Z,23.25
2022-11-05T04:42:20.019Z,22.63
2022-11-05T04:44:48.155Z,21.90
2022-11-05T04:47:16.419Z,23.98
2022-11-05T04:49:44.455Z,23.17
2022-11-05T04:52:12.585Z,26.30
2022-11-05T04:54:40.846Z,28.15
2022-11-05T04:57:09.425Z,29.42
2022-11-05T04:59:37.588Z,30.85
2022-11-05T05:02:05.881Z,33.38
2022-11-05T05:04:34.185Z,33.13
2022-11-05T05:07:02.547Z,32.88
2022-11-05T05:09:30.654Z,31.92
2022-11-05T05:11:59.062Z,33.47
2022-11-05T05:14:27.188Z,35.30
2022-11-05T05:16:55.427Z,35.60
2022-11-05T05:19:26.560Z,32.90
2022-11-05T05:21:54.706Z,35.60
2022-11-05T05:24:23.040Z,31.88
2022-11-05T05:26:52.135Z,31.23
2022-11-05T05:29:20.258Z,31.88
2022-11-05T05:31:48.482Z,32.00
2022-11-05T05:34:16.697Z,33.95
2022-11-05T05:36:44.953Z,32.55
2022-11-05T05:39:14.206Z,33.85
2022-11-05T05:41:42.234Z,33.53
2022-11-05T05:44:10.351Z,32.83
2022-11-05T05:46:38.521Z,31.60
2022-11-05T05:49:12.057Z,33.85
2022-11-05T05:51:41.317Z,32.95
2022-11-05T05:54:10.586Z,33.10
2022-11-05T05:56:38.715Z,34.17
2022-11-05T05:59:07.641Z,34.08
2022-11-05T06:01:35.961Z,34.67
2022-11-05T06:04:04.733Z,34.30
2022-11-05T06:06:32.942Z,34.45
2022-11-05T06:09:00.965Z,35.65
2022-11-05T06:11:29.213Z,35.88
2022-11-05T06:13:57.313Z,35.10
2022-11-05T06:16:28.438Z,36.33
2022-11-05T06:18:56.964Z,34.30
2022-11-05T06:21:25.131Z,34.75
2022-11-05T06:23:53.422Z,32.97
2022-11-05T06:26:21.565Z,33.15
2022-11-05T06:28:49.821Z,31.55
2022-11-05T06:31:17.960Z,32.95
2022-11-05T06:33:45.978Z,32.00
2022-11-05T06:36:16.862Z,31.48
2022-11-05T06:38:45.274Z,32.58
2022-11-05T06:41:13.283Z,32.17
2022-11-05T06:43:41.994Z,30.55
2022-11-05T06:46:11.903Z,29.70
2022-11-05T06:48:40.309Z,29.02
2022-11-05T06:51:09.867Z,31.30
2022-11-05T06:53:37.886Z,30.15
2022-11-05T06:56:07.938Z,30.63
2022-11-05T06:58:36.396Z,30.05
2022-11-05T07:01:09.820Z,32.85
2022-11-05T07:03:38.841Z,29.85
2022-11-05T07:06:08.096Z,31.02
2022-11-05T07:08:38.113Z,29.65
2022-11-05T07:11:06.688Z,29.10
2022-11-05T07:13:34.859Z,32.08
2022-11-05T07:16:03.069Z,30.27
2022-11-05T07:18:31.239Z,30.23
2022-11-05T07:21:00.726Z,31.13
2022-11-05T07:23:29.269Z,36.58
2022-11-05T07:25:57.384Z,37.30
2022-11-05T07:28:25.614Z,37.50
2022-11-05T07:30:53.708Z,38.13
2022-11-05T07:33:21.835Z,38.50
2022-11-05T07:38:45.246Z,38.13
2022-11-05T07:41:13.328Z,36.60
2022-11-05T07:43:41.509Z,32.63
2022-11-05T07:46:13.649Z,35.97
2022-11-05T07:48:42.289Z,35.55
2022-11-05T07:51:10.567Z,35.15
2022-11-05T07:53:42.511Z,38.90
2022-11-05T07:56:13.507Z,36.90
2022-11-05T07:58:41.654Z,37.55
2022-11-05T08:01:10.041Z,35.22
2022-11-05T08:03:38.563Z,34.70
2022-11-05T08:06:07.397Z,34.33
2022-11-05T08:08:35.751Z,32.35
2022-11-05T08:11:08.119Z,34.03
2022-11-05T08:13:37.715Z,31.67
2022-11-05T08:16:06.533Z,34.03
2022-11-05T08:18:34.823Z,32.92
2022-11-05T08:21:05.263Z,31.33
2022-11-05T08:23:33.533Z,32.63
2022-11-05T08:26:04.544Z,33.88
2022-11-05T08:28:33.006Z,32.78
2022-11-05T08:31:01.391Z,27.98
2022-11-05T08:33:29.691Z,24.08
2022-11-05T08:36:02.025Z,23.88
2022-11-05T08:38:30.219Z,22.25
2022-11-05T08:40:59.012Z,21.42
2022-11-05T08:43:27.306Z,21.75
2022-11-05T08:45:55.477Z,19.40
2022-11-05T08:48:23.689Z,20.48
2022-11-05T08:50:51.915Z,25.30
2022-11-05T08:53:20.215Z,27.38
2022-11-05T08:55:48.431Z,26.50
2022-11-05T08:58:17.531Z,25.13
2022-11-05T09:00:48.372Z,24.90
2022-11-05T09:03:17.304Z,22.02
2022-11-05T09:05:45.542Z,20.67
2022-11-05T09:08:21.177Z,18.88
2022-11-05T09:10:49.333Z,14.85
2022-11-05T09:13:19.783Z,19.05
2022-11-05T09:15:49.580Z,18.85
2022-11-05T09:18:19.053Z,15.15
2022-11-05T09:20:47.589Z,13.20
2022-11-05T09:23:15.980Z,11.73
2022-11-05T09:25:45.277Z,13.43
2022-11-05T09:28:18.873Z,12.80
2022-11-05T09:30:49.590Z,13.50
2022-11-05T09:33:22.847Z,13.48
2022-11-05T09:35:51.226Z,13.02
2022-11-05T09:38:19.732Z,14.52
2022-11-05T09:41:02.830Z,13.43
2022-11-05T09:44:03.096Z,12.45
2022-11-05T09:46:42.284Z,12.43
2022-11-05T09:49:28.359Z,10.20
2022-11-05T09:51:58.639Z,11.85
2022-11-05T09:54:30.314Z,12.60
2022-11-05T09:57:00.928Z,12.07
2022-11-05T09:59:37.764Z,12.80
2022-11-05T10:02:31.093Z,12.90
2022-11-05T10:05:09.083Z,13.00
2022-11-05T10:08:07.687Z,11.77
2022-11-05T10:10:43.054Z,12.35
2022-11-05T10:13:23.906Z,10.80
2022-11-05T10:16:07.955Z,11.52
2022-11-05T10:18:40.476Z,12.32
2022-11-05T10:21:13.975Z,11.45
2022-11-05T10:23:43.346Z,12.00
2022-11-05T10:26:26.423Z,10.85
2022-11-05T10:28:55.385Z,11.48
2022-11-05T10:31:24.783Z,11.80
2022-11-05T10:33:57.324Z,12.55
2022-11-05T10:36:29.333Z,13.55
2022-11-05T10:41:40.811Z,12.55
2022-11-05T10:44:20.689Z,12.20
2022-11-05T10:46:58.523Z,9.63
2022-11-05T10:49:40.079Z,9.35
2022-11-05T10:52:39.879Z,10.25
2022-11-05T10:55:25.961Z,10.45
2022-11-05T10:57:54.491Z,11.93
2022-11-05T11:00:25.762Z,10.13
2022-11-05T11:03:00.010Z,9.32
2022-11-05T11:05:29.953Z,8.63
2022-11-05T11:08:06.072Z,8.82
2022-11-05T11:10:41.387Z,9.32
2022-11-05T11:13:24.943Z,10.57
2022-11-05T11:15:53.611Z,11.13
2022-11-05T11:18:26.036Z,11.15
2022-11-05T11:20:54.285Z,9.52
2022-11-05T11:23:22.405Z,11.05
2022-11-05T11:26:02.298Z,10.00
2022-11-05T11:28:44.510Z,8.57
2022-11-05T11:33:49.917Z,9.15
2022-11-05T11:36:24.869Z,9.88
2022-11-05T11:39:00.645Z,9.05
2022-11-05T11:41:38.326Z,8.60
2022-11-05T11:44:16.837Z,9.50
2022-11-05T11:46:50.223Z,20.88
2022-11-05T11:49:47.874Z,8.65
2022-11-05T11:52:37.180Z,7.75
2022-11-05T11:55:14.614Z,7.63
2022-11-05T11:58:06.844Z,7.57
2022-11-05T12:00:42.432Z,10.30
2022-11-05T12:03:19.723Z,10.82
2022-11-05T12:06:27.191Z,25.92
2022-11-05T12:09:10.758Z,13.90
2022-11-05T12:11:59.543Z,35.25
2022-11-05T12:14:46.749Z,18.25
2022-11-05T12:17:50.464Z,17.42
2022-11-05T12:20:42.879Z,20.00
2022-11-05T12:23:14.224Z,42.67
2022-11-05T12:25:54.590Z,27.13
2022-11-05T12:29:04.783Z,11.82
2022-11-05T12:31:41.262Z,8.02
2022-11-05T12:34:32.919Z,10.23
2022-11-05T12:37:19.614Z,14.85
2022-11-05T12:40:28.977Z,8.50
2022-11-05T12:43:11.888Z,15.07
2022-11-05T12:45:50.087Z,12.32
2022-11-05T12:48:56.228Z,12.13
2022-11-05T12:51:54.961Z,13.65
2022-11-05T12:54:37.188Z,16.75
2022-11-05T12:59:40.653Z,13.70
2022-11-05T13:02:27.483Z,18.13
2022-11-05T13:05:31.183Z,8.95
2022-11-05T13:08:08.824Z,10.07
2022-11-05T13:10:55.701Z,16.05
2022-11-05T13:13:39.196Z,11.60
2022-11-05T13:16:17.732Z,8.30
2022-11-05T13:18:56.773Z,8.18
2022-11-05T13:21:27.260Z,17.70
2022-11-05T13:24:17.006Z,8.27
2022-11-05T13:26:54.280Z,8.18
2022-11-05T13:29:32.289Z,7.93
2022-11-05T13:32:21.866Z,7.95
2022-11-05T13:34:50.198Z,9.85
2022-11-05T13:37:29.116Z,12.80
2022-11-05T13:40:04.211Z,24.33
2022-11-05T13:42:50.749Z,18.58
2022-11-05T13:46:04.445Z,13.27
2022-11-05T13:48:44.552Z,17.83
2022-11-05T13:51:27.278Z,12.82
2022-11-05T13:54:04.733Z,7.25
2022-11-05T13:57:10.758Z,14.90
2022-11-05T14:00:00.208Z,9.27
2022-11-05T14:02:44.010Z,9.77
2022-11-05T14:05:43.758Z,10.57
2022-11-05T14:08:21.202Z,12.25
2022-11-05T14:11:17.166Z,15.00
2022-11-05T14:13:46.844Z,7.22
2022-11-05T14:16:24.011Z,10.57
2022-11-05T14:19:15.708Z,10.02
2022-11-05T14:21:50.209Z,8.02
2022-11-05T14:24:24.668Z,8.25
2022-11-05T14:27:01.647Z,10.48
2022-11-05T14:29:38.834Z,9.05
2022-11-05T14:32:19.271Z,8.07
2022-11-05T14:34:53.719Z,13.65
2022-11-05T14:37:24.100Z,11.75
2022-11-05T14:39:54.626Z,9.13
2022-11-05T14:42:41.235Z,6.60
2022-11-05T14:45:26.562Z,6.57
2022-11-05T14:48:06.200Z,7.80
2022-11-05T14:50:43.343Z,8.20
2022-11-05T14:53:33.414Z,6.40
2022-11-05T14:56:06.665Z,7.18
2022-11-05T14:58:37.479Z,8.75
2022-11-05T15:01:16.453Z,8.27
2022-11-05T15:04:00.679Z,8.93
2022-11-05T15:06:35.295Z,9.38
2022-11-05T15:09:26.030Z,7.53
2022-11-05T15:11:57.054Z,7.43
2022-11-05T15:14:54.853Z,7.85
2022-11-05T15:17:38.061Z,9.90
2022-11-05T15:20:18.125Z,6.43
2022-11-05T15:22:52.158Z,8.18
2022-11-05T15:25:53.115Z,7.97
2022-11-05T15:28:38.355Z,7.75
2022-11-05T15:31:24.210Z,7.70
2022-11-05T15:33:52.475Z,9.32
2022-11-05T15:36:31.187Z,7.45
2022-11-05T15:39:28.072Z,8.05
2022-11-05T15:41:48.129Z,5.95
2022-11-05T15:44:27.861Z,8.45
2022-11-05T15:47:16.026Z,8.77
2022-11-05T15:49:48.135Z,8.65
2022-11-05T15:52:18.372Z,6.35
2022-11-05T15:54:46.811Z,9.35
2022-11-05T15:57:28.127Z,7.00
2022-11-05T15:59:56.446Z,7.55
2022-11-05T16:02:43.912Z,7.75
2022-11-05T16:05:14.245Z,7.35
2022-11-05T16:07:44.996Z,12.07
2022-11-05T16:10:25.818Z,7.03
2022-11-05T16:12:54.098Z,8.13
2022-11-05T16:15:25.172Z,6.93
2022-11-05T16:17:58.276Z,5.72
2022-11-05T16:20:28.564Z,6.05
2022-11-05T16:23:03.019Z,6.32
2022-11-05T16:25:37.768Z,8.60
2022-11-05T16:28:30.098Z,8.60
2022-11-05T16:31:04.745Z,7.07
2022-11-05T16:33:45.855Z,6.60
2022-11-05T16:36:14.054Z,7.78
2022-11-05T16:38:42.347Z,26.90
2022-11-05T16:41:21.430Z,9.38
2022-11-05T16:44:00.529Z,6.50
2022-11-05T16:46:30.331Z,7.72
2022-11-05T16:48:58.524Z,9.63
2022-11-05T16:51:28.957Z,6.20
2022-11-05T16:53:57.128Z,9.15
2022-11-05T16:56:25.317Z,6.70
2022-11-05T16:58:53.473Z,6.85
2022-11-05T17:01:23.421Z,6.35
2022-11-05T17:03:53.657Z,7.18
2022-11-05T17:06:22.786Z,8.48
2022-11-05T17:08:51.271Z,5.45
2022-11-05T17:11:21.878Z,7.50
2022-11-05T17:13:50.039Z,8.02
2022-11-05T17:16:19.186Z,12.63
2022-11-05T17:18:47.433Z,15.02
2022-11-05T17:21:15.500Z,9.82
2022-11-05T17:23:43.847Z,8.43
2022-11-05T17:26:13.983Z,8.57
2022-11-05T17:28:42.298Z,7.65
2022-11-05T17:31:13.966Z,8.65
2022-11-05T17:33:42.416Z,12.65
2022-11-05T17:36:14.426Z,20.80
2022-11-05T17:38:43.368Z,18.38
2022-11-05T17:41:13.401Z,32.88
2022-11-05T17:43:42.101Z,26.38
2022-11-05T17:46:12.523Z,14.80
2022-11-05T17:48:41.582Z,15.73
2022-11-05T17:51:14.901Z,10.10
2022-11-05T17:53:43.857Z,12.43
2022-11-05T17:56:13.854Z,8.55
2022-11-05T17:58:42.298Z,11.32
2022-11-05T18:01:28.342Z,16.98
2022-11-05T18:03:57.131Z,16.35
2022-11-05T18:06:25.378Z,17.20
2022-11-05T18:08:53.812Z,21.40
2022-11-05T18:11:22.065Z,15.27
2022-11-05T18:13:50.158Z,18.02
2022-11-05T18:16:18.415Z,26.13
2022-11-05T18:18:46.485Z,17.10
2022-11-05T18:21:15.350Z,14.57
2022-11-05T18:23:43.735Z,14.98
2022-11-05T18:26:13.783Z,14.93
2022-11-05T18:28:43.285Z,17.33
2022-11-05T18:31:18.430Z,17.10
2022-11-05T18:33:51.473Z,16.75
2022-11-05T18:36:27.614Z,22.40
2022-11-05T18:38:57.505Z,25.10
2022-11-05T18:41:26.103Z,29.55
2022-11-05T18:43:58.393Z,24.35
2022-11-05T18:46:55.827Z,22.05
2022-11-05T18:49:14.855Z,20.77
2022-11-05T18:51:42.894Z,21.55
2022-11-05T18:54:11.087Z,17.00
2022-11-05T18:56:39.327Z,21.85
2022-11-05T18:59:35.254Z,25.55
2022-11-05T19:01:55.848Z,18.60
2022-11-05T19:04:24.153Z,15.13
2022-11-05T19:06:52.213Z,13.95
2022-11-05T19:09:20.493Z,13.68
2022-11-05T19:11:48.575Z,14.48
2022-11-05T19:14:16.753Z,22.30
2022-11-05T19:16:44.902Z,17.50
2022-11-05T19:19:14.839Z,15.88
2022-11-05T19:21:43.005Z,31.05
2022-11-05T19:24:16.808Z,21.98
2022-11-05T19:26:45.199Z,33.35
2022-11-05T19:29:13.548Z,32.17
2022-11-05T19:31:42.069Z,21.75
2022-11-05T19:34:10.218Z,22.15
2022-11-05T19:36:38.481Z,16.45
2022-11-05T19:39:08.659Z,14.18
2022-11-05T19:41:40.126Z,11.77
2022-11-05T19:44:08.665Z,11.07
2022-11-05T19:46:36.687Z,9.38
2022-11-05T19:49:05.399Z,12.05
2022-11-05T19:51:34.174Z,12.38
2022-11-05T19:54:04.073Z,10.38
2022-11-05T19:56:34.626Z,9.85
2022-11-05T19:59:03.721Z,22.52
2022-11-05T20:01:32.287Z,80.50
2022-11-05T20:04:01.508Z,63.55
2022-11-05T20:06:33.213Z,37.30
2022-11-05T20:11:55.512Z,35.42
2022-11-05T20:14:25.164Z,24.52
2022-11-05T20:16:54.080Z,25.40
2022-11-05T20:19:23.895Z,64.68
2022-11-05T20:21:52.197Z,39.00
2022-11-05T20:26:46.321Z,20.15
2022-11-05T20:29:14.480Z,21.58
2022-11-05T20:31:42.665Z,18.35
2022-11-05T20:34:10.876Z,32.03
2022-11-05T20:36:40.140Z,17.02
2022-11-05T20:39:08.850Z,19.83
2022-11-05T20:41:37.328Z,22.92
2022-11-05T20:44:05.566Z,40.95
2022-11-05T20:46:33.779Z,38.55
2022-11-05T20:49:02.097Z,56.50
2022-11-05T20:51:30.352Z,28.38
2022-11-05T20:54:01.095Z,26.33
2022-11-05T20:56:33.177Z,50.40
2022-11-05T21:01:32.232Z,27.40
2022-11-05T21:04:00.646Z,46.33
2022-11-05T21:06:29.158Z,68.40
2022-11-05T21:09:00.202Z,72.72
2022-11-05T21:11:28.737Z,27.35
2022-11-05T21:13:56.928Z,21.83
2022-11-05T21:16:25.054Z,54.72
2022-11-05T21:18:53.233Z,61.92
2022-11-05T21:21:21.805Z,93.53
2022-11-05T21:23:49.903Z,37.58
2022-11-05T21:26:18.289Z,25.77
2022-11-05T21:28:46.493Z,30.02
2022-11-05T21:31:16.343Z,31.73
2022-11-05T21:33:44.573Z,42.38
2022-11-05T21:36:14.017Z,38.78
2022-11-05T21:38:42.511Z,34.63
2022-11-05T21:41:11.825Z,18.95
2022-11-05T21:43:40.997Z,12.23
2022-11-05T21:46:12.651Z,12.88
2022-11-05T21:48:41.549Z,84.43
2022-11-05T21:51:12.054Z,34.40
2022-11-05T21:53:41.090Z,14.38
2022-11-05T21:56:21.295Z,11.00
2022-11-05T21:58:49.782Z,10.20
2022-11-05T22:01:18.502Z,8.40
2022-11-05T22:03:46.795Z,10.40
2022-11-05T22:06:14.941Z,9.60
2022-11-05T22:08:43.198Z,10.43
2022-11-05T22:11:11.463Z,10.63
2022-11-05T22:13:39.581Z,11.38
2022-11-05T22:16:08.202Z,10.70
2022-11-05T22:18:36.461Z,9.95
2022-11-05T22:21:04.710Z,9.48
2022-11-05T22:23:32.933Z,8.32
2022-11-05T22:26:02.638Z,9.32
2022-11-05T22:28:30.763Z,9.93
2022-11-05T22:30:58.815Z,8.88
2022-11-05T22:33:27.107Z,8.93
2022-11-05T22:35:55.152Z,8.32
2022-11-05T22:38:23.450Z,8.70
2022-11-05T22:40:51.691Z,8.68
2022-11-05T22:43:19.806Z,8.43
2022-11-05T22:45:48.009Z,8.93
2022-11-05T22:48:16.796Z,8.98
2022-11-05T22:50:45.141Z,8.95
2022-11-05T22:53:13.210Z,9.00
2022-11-05T22:55:41.525Z,8.88
2022-11-05T22:58:09.868Z,9.50
2022-11-05T23:00:39.201Z,9.30
2022-11-05T23:03:07.713Z,10.07
2022-11-05T23:05:35.972Z,9.88
2022-11-05T23:08:04.547Z,9.65
2022-11-05T23:10:34.197Z,9.45
2022-11-05T23:13:02.315Z,9.70
2022-11-05T23:15:30.577Z,8.80
2022-11-05T23:17:58.863Z,7.70
2022-11-05T23:20:27.096Z,7.30
2022-11-05T23:22:55.295Z,7.53
2022-11-05T23:25:24.603Z,8.10
2022-11-05T23:27:54.813Z,7.60
2022-11-05T23:30:28.550Z,8.02
2022-11-05T23:32:57.412Z,8.18
2022-11-05T23:35:25.714Z,9.05
2022-11-05T23:37:53.868Z,9.52
2022-11-05T23:40:25.483Z,10.50
2022-11-05T23:42:54.034Z,8.68
2022-11-05T23:45:22.509Z,8.75
2022-11-05T23:47:50.854Z,7.13
2022-11-05T23:50:19.131Z,7.28
2022-11-05T23:52:47.210Z,7.60
2022-11-05T23:55:15.477Z,7.10
2022-11-05T23:57:43.719Z,7.57
